Time;durP1;ratioP1;P1;durP2;ratioP2;P2;SDS_P1;SDS_P2;PMS_P1;PMS_P2;Temp;Humidity;BMP_temperature;BMP_pressure;BME280_temperature;BME280_humidity;BME280_pressure;Samples;Min_cycle;Max_cycle;Signal;HPM_P1;HPM_P2
2023/08/28 00:01:04;;;;;;;5.78;1.50;;;14.70;99.90;;;;;;5049112;28;20381;-73
2023/08/28 00:03:50;;;;;;;2.90;1.75;;;14.70;99.90;;;;;;5027520;28;20090;-73
2023/08/28 00:06:36;;;;;;;5.70;1.65;;;14.70;99.90;;;;;;5035232;28;20346;-73
2023/08/28 00:09:22;;;;;;;7.53;2.13;;;14.70;99.90;;;;;;5049162;28;20124;-73
2023/08/28 00:12:08;;;;;;;3.88;1.67;;;14.60;99.90;;;;;;5045427;28;20041;-74
2023/08/28 00:14:54;;;;;;;4.53;1.90;;;14.50;99.90;;;;;;5037434;28;20052;-73
2023/08/28 00:17:40;;;;;;;5.30;2.08;;;14.50;99.90;;;;;;5045427;28;20087;-73
2023/08/28 00:20:26;;;;;;;4.50;1.88;;;14.60;99.90;;;;;;5029261;28;20052;-73
2023/08/28 00:23:12;;;;;;;5.25;2.13;;;14.60;99.90;;;;;;5035983;28;20041;-73
2023/08/28 00:25:59;;;;;;;4.78;2.10;;;14.50;99.90;;;;;;5039572;28;20070;-73
2023/08/28 00:28:45;;;;;;;5.03;2.37;;;14.50;99.90;;;;;;5042371;28;20094;-74
2023/08/28 00:31:31;;;;;;;4.78;1.80;;;14.40;99.90;;;;;;5041881;28;20296;-74
2023/08/28 00:34:17;;;;;;;3.70;1.63;;;14.40;99.90;;;;;;5031352;28;20049;-74
2023/08/28 00:37:04;;;;;;;4.57;1.98;;;14.40;99.90;;;;;;5053570;28;20154;-73
2023/08/28 00:39:50;;;;;;;3.78;2.10;;;14.30;99.90;;;;;;5036581;28;20102;-73
2023/08/28 00:42:36;;;;;;;4.30;2.30;;;14.30;99.90;;;;;;5042619;28;20037;-73
2023/08/28 00:45:22;;;;;;;5.78;2.60;;;14.30;99.90;;;;;;5049235;28;20033;-73
2023/08/28 00:48:09;;;;;;;4.50;2.70;;;14.20;99.90;;;;;;5045280;28;20130;-73
2023/08/28 00:50:56;;;;;;;5.93;2.58;;;14.20;99.90;;;;;;5047315;28;20068;-74
2023/08/28 00:53:42;;;;;;;3.65;2.30;;;14.30;99.90;;;;;;5038167;28;20047;-73
2023/08/28 00:56:28;;;;;;;5.38;2.95;;;14.20;99.90;;;;;;5040382;28;20136;-73
2023/08/28 00:59:15;;;;;;;5.00;2.80;;;14.20;99.90;;;;;;5035345;28;20084;-73
2023/08/28 01:02:01;;;;;;;3.50;2.40;;;14.20;99.90;;;;;;5043236;28;20049;-74
2023/08/28 01:04:46;;;;;;;3.85;2.40;;;14.20;99.90;;;;;;5047698;28;20037;-73
2023/08/28 01:08:02;;;;;;;3.67;2.50;;;14.30;99.90;;;;;;5039555;28;20045;-73
2023/08/28 01:10:52;;;;;;;3.97;2.15;;;14.30;99.90;;;;;;5041740;28;20040;-74
2023/08/28 01:13:45;;;;;;;5.78;2.42;;;14.30;99.90;;;;;;5052857;28;20131;-74
2023/08/28 01:16:31;;;;;;;5.38;2.60;;;14.30;99.90;;;;;;5050758;28;20036;-73
2023/08/28 01:19:32;;;;;;;5.90;2.40;;;14.20;99.90;;;;;;5039081;28;20044;-73
2023/08/28 01:22:22;;;;;;;4.40;2.60;;;14.20;99.90;;;;;;5051458;28;20112;-74
2023/08/28 01:25:10;;;;;;;5.55;2.75;;;14.20;99.90;;;;;;5036211;28;20465;-73
2023/08/28 01:27:56;;;;;;;7.77;2.27;;;14.20;99.90;;;;;;5038614;28;20055;-73
2023/08/28 01:30:42;;;;;;;6.25;2.10;;;14.30;99.90;;;;;;5025101;28;20362;-73
2023/08/28 01:33:28;;;;;;;4.32;2.28;;;14.30;99.90;;;;;;5035558;28;20045;-73
2023/08/28 01:36:30;;;;;;;6.30;2.28;;;14.30;99.90;;;;;;5046567;28;20044;-73
2023/08/28 01:39:22;;;;;;;3.55;1.92;;;14.20;99.90;;;;;;5052569;28;20044;-73
2023/08/28 01:42:08;;;;;;;4.43;2.28;;;14.30;99.90;;;;;;5051345;28;20037;-73
2023/08/28 01:44:54;;;;;;;3.33;2.35;;;14.20;99.90;;;;;;5020638;28;20041;-73
2023/08/28 01:47:40;;;;;;;4.10;2.33;;;14.10;99.90;;;;;;5032286;28;20038;-74
2023/08/28 01:50:26;;;;;;;4.43;2.75;;;14.10;99.90;;;;;;5039101;28;20070;-74
2023/08/28 01:53:13;;;;;;;6.78;2.67;;;14.00;99.90;;;;;;5032081;28;20060;-74
2023/08/28 01:56:08;;;;;;;5.63;2.78;;;14.00;99.90;;;;;;5031031;28;20064;-74
2023/08/28 01:58:57;;;;;;;3.95;2.08;;;14.10;99.90;;;;;;5039507;28;20045;-73
2023/08/28 02:01:43;;;;;;;6.18;2.92;;;14.10;99.90;;;;;;5029762;28;20037;-73
2023/08/28 02:04:29;;;;;;;3.80;2.38;;;14.10;99.90;;;;;;5034848;28;20036;-73
2023/08/28 02:07:15;;;;;;;5.13;3.25;;;14.20;99.90;;;;;;5052292;28;20386;-73
2023/08/28 02:10:02;;;;;;;3.05;2.33;;;14.10;99.90;;;;;;5051554;28;20053;-75
2023/08/28 02:12:47;;;;;;;5.03;3.13;;;14.10;99.90;;;;;;5043389;28;20041;-73
2023/08/28 02:15:33;;;;;;;4.93;3.05;;;14.10;99.90;;;;;;5077004;28;20049;-73
2023/08/28 02:18:19;;;;;;;4.25;2.60;;;14.10;99.90;;;;;;5032467;28;20057;-73
2023/08/28 02:21:06;;;;;;;5.85;2.88;;;14.10;99.90;;;;;;5043692;28;20412;-73
2023/08/28 02:23:52;;;;;;;5.10;3.20;;;14.10;99.90;;;;;;5035517;28;20658;-73
2023/08/28 02:26:38;;;;;;;5.40;2.83;;;14.20;99.90;;;;;;5031014;28;20080;-73
2023/08/28 02:29:24;;;;;;;5.07;3.15;;;14.10;99.90;;;;;;5046112;28;20460;-73
2023/08/28 02:32:10;;;;;;;4.55;2.67;;;14.10;99.90;;;;;;5023119;28;20042;-74
2023/08/28 02:34:56;;;;;;;4.97;3.10;;;14.10;99.90;;;;;;5044407;28;20331;-73
2023/08/28 02:37:43;;;;;;;5.70;3.40;;;14.10;99.90;;;;;;5032035;28;20041;-73
2023/08/28 02:40:29;;;;;;;6.82;3.35;;;14.10;99.90;;;;;;5037339;28;20566;-73
2023/08/28 02:43:15;;;;;;;5.60;3.50;;;14.00;99.90;;;;;;5036989;28;20119;-74
2023/08/28 02:46:01;;;;;;;4.75;3.65;;;14.10;99.90;;;;;;5072204;28;20045;-73
2023/08/28 02:48:47;;;;;;;11.75;3.63;;;14.00;99.90;;;;;;5035850;28;20099;-73
2023/08/28 02:51:33;;;;;;;4.40;3.65;;;14.10;99.90;;;;;;5033985;28;20056;-74
2023/08/28 02:54:19;;;;;;;5.82;3.22;;;14.00;99.90;;;;;;5040051;28;20102;-73
2023/08/28 02:57:05;;;;;;;8.70;3.70;;;14.00;99.90;;;;;;5042318;28;20102;-73
2023/08/28 02:59:51;;;;;;;6.05;3.90;;;14.00;99.90;;;;;;5032179;28;20049;-73
2023/08/28 03:02:37;;;;;;;7.15;3.58;;;14.00;99.90;;;;;;5058595;28;20051;-73
2023/08/28 03:05:23;;;;;;;8.23;3.78;;;14.10;99.90;;;;;;5034198;28;20412;-73
2023/08/28 03:08:09;;;;;;;6.88;4.07;;;14.10;99.90;;;;;;5043548;28;20091;-73
2023/08/28 03:10:55;;;;;;;7.45;4.25;;;14.10;99.90;;;;;;5033110;28;20049;-73
2023/08/28 03:13:41;;;;;;;6.15;4.70;;;14.00;99.90;;;;;;5029626;28;20084;-73
2023/08/28 03:16:27;;;;;;;7.18;4.55;;;14.00;99.90;;;;;;5030943;28;20044;-74
2023/08/28 03:19:13;;;;;;;6.22;4.53;;;13.80;99.90;;;;;;5045905;28;20092;-73
2023/08/28 03:21:58;;;;;;;8.48;4.90;;;13.80;99.90;;;;;;5029017;28;20041;-72
2023/08/28 03:24:45;;;;;;;6.85;4.70;;;13.80;99.90;;;;;;5046037;28;20036;-72
2023/08/28 03:27:31;;;;;;;6.90;4.05;;;13.80;99.90;;;;;;5023541;28;20057;-71
2023/08/28 03:30:17;;;;;;;5.22;4.03;;;13.70;99.90;;;;;;5053510;28;20366;-72
2023/08/28 03:33:03;;;;;;;5.45;4.00;;;13.70;99.90;;;;;;5062542;28;20028;-71
2023/08/28 03:35:49;;;;;;;6.57;3.70;;;13.70;99.90;;;;;;5038203;28;20041;-71
2023/08/28 03:38:35;;;;;;;9.13;4.32;;;13.60;99.90;;;;;;5057342;28;20352;-71
2023/08/28 03:41:21;;;;;;;6.28;4.60;;;13.50;99.90;;;;;;5053654;28;20044;-72
2023/08/28 03:44:07;;;;;;;6.40;4.45;;;13.50;99.90;;;;;;5034568;28;20048;-72
2023/08/28 03:46:53;;;;;;;6.38;4.32;;;13.40;99.90;;;;;;5022033;28;20068;-71
2023/08/28 03:49:39;;;;;;;7.65;4.32;;;13.40;99.90;;;;;;5036191;28;20045;-71
2023/08/28 03:52:25;;;;;;;5.28;4.15;;;13.40;99.90;;;;;;5019781;28;20500;-71
2023/08/28 03:55:11;;;;;;;6.40;4.57;;;13.40;99.90;;;;;;5040603;28;20470;-71
2023/08/28 03:58:00;;;;;;;14.40;5.57;;;13.30;99.90;;;;;;5059411;28;20389;-71
2023/08/28 04:00:45;;;;;;;;;;;13.30;99.90;;;;;;5033143;28;20037;-71
2023/08/28 04:03:31;;;;;;;9.55;5.38;;;13.20;99.90;;;;;;5034266;28;20688;-71
2023/08/28 04:06:17;;;;;;;7.38;4.60;;;13.20;99.90;;;;;;5061582;28;20036;-71
2023/08/28 04:09:03;;;;;;;6.05;4.68;;;13.20;99.90;;;;;;5044068;28;20079;-71
2023/08/28 04:11:51;;;;;;;6.57;4.70;;;13.20;99.90;;;;;;5036882;28;20465;-71
2023/08/28 04:14:37;;;;;;;6.60;4.70;;;13.20;99.90;;;;;;5066781;28;20508;-71
2023/08/28 04:17:24;;;;;;;7.38;4.97;;;13.20;99.90;;;;;;5039801;28;20172;-71
2023/08/28 04:20:14;;;;;;;7.82;5.00;;;13.20;99.90;;;;;;5037047;28;20485;-71
2023/08/28 04:23:00;;;;;;;8.13;4.80;;;13.20;99.90;;;;;;5038181;28;20477;-71
2023/08/28 04:25:46;;;;;;;9.90;5.40;;;13.20;99.90;;;;;;5034356;28;20480;-71
2023/08/28 04:28:32;;;;;;;6.38;5.15;;;13.20;99.90;;;;;;5027937;28;20053;-71
2023/08/28 04:31:19;;;;;;;7.50;5.47;;;13.10;99.90;;;;;;5053342;28;20073;-71
2023/08/28 04:34:05;;;;;;;9.95;5.85;;;13.00;99.90;;;;;;5024427;28;20045;-71
2023/08/28 04:36:51;;;;;;;9.48;5.90;;;13.00;99.90;;;;;;5048219;28;20528;-71
2023/08/28 04:39:36;;;;;;;7.70;5.63;;;13.00;99.90;;;;;;5034217;28;20072;-71
2023/08/28 04:42:22;;;;;;;10.30;6.82;;;13.00;99.90;;;;;;5043005;28;20362;-71
2023/08/28 04:45:09;;;;;;;10.35;6.35;;;12.90;99.90;;;;;;5036838;28;20033;-72
2023/08/28 04:47:55;;;;;;;10.38;6.75;;;13.00;99.90;;;;;;5033397;28;20037;-72
2023/08/28 04:50:41;;;;;;;9.02;6.55;;;13.00;99.90;;;;;;5046215;28;20152;-71
2023/08/28 04:53:27;;;;;;;10.45;7.22;;;12.90;99.90;;;;;;5079030;28;20111;-71
2023/08/28 04:56:13;;;;;;;10.98;7.82;;;12.90;99.90;;;;;;5042607;28;20132;-71
2023/08/28 04:58:59;;;;;;;10.15;7.50;;;13.00;99.90;;;;;;5031890;28;20076;-71
2023/08/28 05:01:45;;;;;;;9.35;6.68;;;13.00;99.90;;;;;;5044269;28;20044;-71
2023/08/28 05:04:31;;;;;;;12.05;7.68;;;13.00;99.90;;;;;;5030866;28;20038;-71
2023/08/28 05:07:17;;;;;;;9.82;7.72;;;13.10;99.90;;;;;;5037124;28;20136;-71
2023/08/28 05:10:03;;;;;;;11.02;7.25;;;13.00;99.90;;;;;;5042047;28;20123;-71
2023/08/28 05:12:49;;;;;;;10.98;7.82;;;13.00;99.90;;;;;;5034584;28;20051;-72
2023/08/28 05:15:35;;;;;;;11.25;7.65;;;13.00;99.90;;;;;;5040786;28;20047;-73
2023/08/28 05:18:22;;;;;;;14.77;8.30;;;13.10;99.90;;;;;;5047241;28;20142;-73
2023/08/28 05:21:08;;;;;;;11.60;7.85;;;13.10;99.90;;;;;;5046769;28;20072;-73
2023/08/28 05:23:53;;;;;;;15.18;9.02;;;13.10;99.90;;;;;;5029302;28;20052;-74
2023/08/28 05:26:39;;;;;;;10.90;8.30;;;13.20;99.90;;;;;;5035027;28;20036;-73
2023/08/28 05:29:25;;;;;;;15.90;9.13;;;13.20;99.90;;;;;;5040847;28;20076;-73
2023/08/28 05:32:11;;;;;;;13.10;8.95;;;13.20;99.90;;;;;;5051333;28;20090;-73
2023/08/28 05:34:58;;;;;;;13.25;8.43;;;13.20;99.90;;;;;;5037633;28;20045;-73
2023/08/28 05:37:44;;;;;;;12.90;9.02;;;13.30;99.90;;;;;;5040744;28;20119;-74
2023/08/28 05:40:30;;;;;;;13.88;8.68;;;13.30;99.90;;;;;;5033375;28;20604;-73
2023/08/28 05:43:16;;;;;;;14.23;9.43;;;13.40;99.90;;;;;;5043423;28;20207;-74
2023/08/28 05:46:02;;;;;;;12.88;8.07;;;13.40;99.90;;;;;;5031889;28;20152;-73
2023/08/28 05:48:47;;;;;;;14.50;9.38;;;13.40;99.90;;;;;;5038492;28;20365;-73
2023/08/28 05:51:33;;;;;;;15.20;9.65;;;13.50;99.90;;;;;;5016827;28;20051;-73
2023/08/28 05:54:19;;;;;;;12.27;9.63;;;13.50;99.90;;;;;;5034596;28;20068;-73
2023/08/28 05:57:05;;;;;;;14.35;9.52;;;13.60;99.90;;;;;;5028456;28;20049;-73
2023/08/28 05:59:51;;;;;;;13.80;9.13;;;13.60;99.90;;;;;;5046841;28;20049;-73
2023/08/28 06:02:37;;;;;;;11.23;8.98;;;13.70;99.90;;;;;;5032572;28;20088;-73
2023/08/28 06:05:23;;;;;;;12.98;8.90;;;13.70;99.90;;;;;;5044333;28;20036;-73
2023/08/28 06:08:09;;;;;;;12.18;8.43;;;13.70;99.90;;;;;;5030413;28;20045;-73
2023/08/28 06:10:55;;;;;;;16.38;8.68;;;13.80;99.90;;;;;;5036507;28;20048;-73
2023/08/28 06:13:41;;;;;;;11.77;8.32;;;13.80;99.90;;;;;;5074892;28;20044;-73
2023/08/28 06:16:27;;;;;;;12.60;8.50;;;13.90;99.90;;;;;;5037666;28;20051;-73
2023/08/28 06:19:13;;;;;;;12.45;7.85;;;13.90;99.90;;;;;;5072986;28;20053;-73
2023/08/28 06:22:03;;;;;;;9.30;7.53;;;14.00;99.90;;;;;;5034926;28;20041;-73
2023/08/28 06:24:52;;;;;;;12.38;8.40;;;14.10;99.90;;;;;;5040391;28;20042;-73
2023/08/28 06:27:38;;;;;;;9.40;7.03;;;14.10;99.90;;;;;;5034824;28;20738;-73
2023/08/28 06:30:24;;;;;;;12.90;7.63;;;14.10;99.90;;;;;;5042027;28;20817;-73
2023/08/28 06:33:10;;;;;;;12.75;8.23;;;14.20;99.90;;;;;;5050066;28;20140;-73
2023/08/28 06:35:56;;;;;;;12.95;7.53;;;14.20;99.90;;;;;;5041820;28;20056;-74
2023/08/28 06:38:42;;;;;;;11.95;8.13;;;14.30;99.90;;;;;;5051253;28;20051;-73
2023/08/28 06:41:28;;;;;;;10.40;7.78;;;14.30;99.90;;;;;;5048836;28;20036;-74
2023/08/28 06:44:14;;;;;;;14.93;7.38;;;14.30;99.90;;;;;;5030415;28;20033;-73
2023/08/28 06:47:00;;;;;;;13.10;6.88;;;14.30;99.90;;;;;;5045060;28;20702;-74
2023/08/28 06:49:46;;;;;;;10.23;6.85;;;14.40;99.90;;;;;;5041162;28;20037;-73
2023/08/28 06:52:32;;;;;;;11.55;6.65;;;14.40;99.90;;;;;;5034239;28;20093;-74
2023/08/28 06:55:18;;;;;;;9.77;6.68;;;14.50;99.90;;;;;;5036221;28;20049;-73
2023/08/28 06:58:04;;;;;;;10.52;6.35;;;14.60;99.90;;;;;;5038872;28;20681;-73
2023/08/28 07:00:50;;;;;;;9.77;6.05;;;14.60;99.90;;;;;;5046320;28;20047;-74
2023/08/28 07:03:36;;;;;;;11.45;6.05;;;14.70;99.90;;;;;;5024442;28;20043;-73
2023/08/28 07:06:22;;;;;;;11.60;6.78;;;14.80;99.90;;;;;;5029257;28;20452;-73
2023/08/28 07:09:08;;;;;;;9.60;6.10;;;14.80;99.90;;;;;;5020263;28;20083;-73
2023/08/28 07:11:54;;;;;;;11.00;6.07;;;14.90;99.90;;;;;;5032453;28;20053;-73
2023/08/28 07:14:40;;;;;;;7.95;5.47;;;14.90;99.90;;;;;;5023008;28;20060;-74
2023/08/28 07:17:26;;;;;;;7.97;5.40;;;15.00;99.90;;;;;;5040623;28;20557;-73
2023/08/28 07:20:12;;;;;;;10.85;5.55;;;15.00;99.90;;;;;;5043411;28;20404;-73
2023/08/28 07:22:58;;;;;;;9.43;5.75;;;15.20;99.90;;;;;;5045784;28;20044;-74
2023/08/28 07:25:45;;;;;;;6.57;4.88;;;15.20;99.90;;;;;;5055729;28;20052;-73
2023/08/28 07:28:31;;;;;;;9.95;5.07;;;15.30;99.90;;;;;;5035255;28;20055;-73
2023/08/28 07:31:17;;;;;;;6.03;4.80;;;15.30;99.90;;;;;;5065257;28;20045;-74
2023/08/28 07:34:04;;;;;;;9.20;4.55;;;15.30;99.90;;;;;;5036358;28;20048;-74
2023/08/28 07:36:51;;;;;;;5.97;4.13;;;15.40;99.90;;;;;;5049458;28;20061;-74
2023/08/28 07:39:37;;;;;;;8.00;4.60;;;15.50;99.90;;;;;;5038985;28;20041;-73
2023/08/28 07:42:23;;;;;;;6.97;4.45;;;15.50;99.90;;;;;;5050052;28;20037;-73
2023/08/28 07:45:09;;;;;;;6.97;4.53;;;15.40;99.90;;;;;;5018722;28;20037;-73
2023/08/28 07:47:55;;;;;;;8.68;4.60;;;15.50;99.90;;;;;;5043718;28;20044;-73
2023/08/28 07:50:42;;;;;;;9.15;4.18;;;15.60;99.90;;;;;;5037793;28;20095;-73
2023/08/28 07:53:28;;;;;;;7.03;4.75;;;15.60;99.90;;;;;;5049755;28;20116;-73
2023/08/28 07:56:15;;;;;;;8.52;4.57;;;15.70;99.90;;;;;;5050959;28;20354;-74
2023/08/28 07:59:00;;;;;;;6.55;4.47;;;15.70;99.90;;;;;;5031682;28;20045;-75
2023/08/28 08:01:46;;;;;;;7.65;4.00;;;15.70;99.90;;;;;;5050027;28;20124;-75
2023/08/28 08:04:32;;;;;;;9.52;4.13;;;15.80;99.90;;;;;;5040604;28;20044;-74
2023/08/28 08:07:18;;;;;;;6.18;3.88;;;15.90;99.90;;;;;;5052634;28;20052;-74
2023/08/28 08:10:08;;;;;;;9.32;3.65;;;15.90;99.90;;;;;;5050396;28;20041;-75
2023/08/28 08:12:54;;;;;;;7.10;4.13;;;16.00;99.90;;;;;;5027350;28;20132;-73
2023/08/28 08:15:40;;;;;;;7.40;3.85;;;16.00;99.90;;;;;;5052834;28;20044;-73
2023/08/28 08:18:26;;;;;;;7.55;4.05;;;16.00;99.90;;;;;;5045391;28;20045;-74
2023/08/28 08:21:13;;;;;;;7.35;3.88;;;16.00;99.90;;;;;;5040158;28;20466;-75
2023/08/28 08:24:00;;;;;;;8.07;2.97;;;16.30;99.90;;;;;;5030067;28;20517;-75
2023/08/28 08:26:46;;;;;;;6.68;3.75;;;16.60;99.90;;;;;;5040136;28;20155;-75
2023/08/28 08:29:32;;;;;;;6.90;3.13;;;16.60;99.90;;;;;;5051470;28;20051;-75
2023/08/28 08:32:18;;;;;;;4.57;2.83;;;16.90;99.90;;;;;;5063709;28;20516;-74
2023/08/28 08:35:05;;;;;;;6.47;3.08;;;16.80;99.90;;;;;;5024889;28;20060;-75
2023/08/28 08:37:54;;;;;;;4.70;3.10;;;16.70;99.90;;;;;;5023019;28;20060;-76
2023/08/28 08:40:41;;;;;;;4.65;2.75;;;17.00;99.90;;;;;;5020793;28;20132;-74
2023/08/28 08:43:27;;;;;;;3.80;2.67;;;17.20;99.90;;;;;;5038160;28;20041;-74
2023/08/28 08:46:13;;;;;;;5.88;2.80;;;17.20;99.90;;;;;;5033325;28;20545;-74
2023/08/28 08:49:00;;;;;;;5.35;3.10;;;17.20;99.90;;;;;;5036508;28;20130;-74
2023/08/28 08:51:46;;;;;;;5.80;2.70;;;17.20;99.90;;;;;;5022024;28;20498;-74
2023/08/28 08:54:37;;;;;;;7.07;3.15;;;17.30;99.90;;;;;;5026003;28;20057;-75
2023/08/28 08:57:36;;;;;;;4.60;2.80;;;17.20;99.90;;;;;;5024844;28;20063;-75
2023/08/28 09:00:22;;;;;;;5.63;2.60;;;17.30;99.90;;;;;;5027187;28;20058;-74
2023/08/28 09:03:08;;;;;;;5.30;2.28;;;17.40;99.90;;;;;;5038373;28;20129;-75
2023/08/28 09:05:54;;;;;;;5.80;2.50;;;17.50;99.90;;;;;;5033626;28;20073;-74
2023/08/28 09:08:41;;;;;;;6.30;2.40;;;17.50;99.90;;;;;;5032590;28;20049;-74
2023/08/28 09:11:27;;;;;;;4.68;2.30;;;17.50;99.90;;;;;;5035793;28;20041;-74
2023/08/28 09:14:13;;;;;;;5.63;2.80;;;17.60;99.90;;;;;;5033728;28;20069;-74
2023/08/28 09:16:59;;;;;;;5.05;2.28;;;17.50;99.90;;;;;;5012265;28;20091;-74
2023/08/28 09:19:45;;;;;;;4.47;2.78;;;17.60;99.90;;;;;;5029265;28;20056;-74
2023/08/28 09:22:31;;;;;;;4.95;2.90;;;17.30;99.90;;;;;;5033400;28;20056;-74
2023/08/28 09:25:18;;;;;;;5.60;2.95;;;17.00;99.90;;;;;;5038014;28;20032;-74
2023/08/28 09:28:04;;;;;;;5.35;2.60;;;16.90;99.90;;;;;;5020680;28;20032;-74
2023/08/28 09:30:50;;;;;;;5.03;2.50;;;16.80;99.90;;;;;;5021824;28;20470;-74
2023/08/28 09:33:46;;;;;;;4.75;2.10;;;16.90;99.90;;;;;;5024606;28;20043;-74
2023/08/28 09:36:41;;;;;;;4.28;2.00;;;16.90;99.90;;;;;;5021787;28;20409;-74
2023/08/28 09:39:27;;;;;;;5.03;2.22;;;16.90;99.90;;;;;;5013333;28;20805;-74
2023/08/28 09:42:14;;;;;;;5.88;2.10;;;17.00;99.90;;;;;;5019351;28;20041;-74
2023/08/28 09:45:05;;;;;;;7.07;2.50;;;17.00;99.90;;;;;;5034245;28;20755;-73
2023/08/28 09:47:53;;;;;;;5.93;2.88;;;17.10;99.90;;;;;;5043842;28;20047;-73
2023/08/28 09:50:41;;;;;;;3.63;2.35;;;17.20;99.90;;;;;;5023917;28;20044;-73
2023/08/28 09:53:27;;;;;;;6.25;2.50;;;17.30;99.90;;;;;;5012353;28;20488;-74
2023/08/28 09:56:17;;;;;;;4.72;2.35;;;17.40;99.90;;;;;;5019420;28;20045;-75
2023/08/28 09:59:04;;;;;;;7.90;2.60;;;17.40;99.90;;;;;;5023019;28;20047;-74
2023/08/28 10:01:50;;;;;;;3.92;2.28;;;17.40;99.90;;;;;;5037229;28;20032;-74
2023/08/28 10:04:36;;;;;;;4.20;2.70;;;17.30;99.90;;;;;;5024093;28;20040;-74
2023/08/28 10:07:23;;;;;;;6.28;3.30;;;17.30;99.90;;;;;;5042442;28;20789;-75
2023/08/28 10:10:10;;;;;;;6.75;2.80;;;17.30;99.90;;;;;;5035020;28;20048;-76
2023/08/28 10:12:56;;;;;;;3.88;2.20;;;17.30;99.90;;;;;;5036627;28;20383;-74
2023/08/28 10:15:48;;;;;;;5.43;2.60;;;17.40;99.90;;;;;;5014669;28;20053;-74
2023/08/28 10:18:37;;;;;;;5.55;3.05;;;17.30;99.90;;;;;;5030721;28;20041;-74
2023/08/28 10:21:23;;;;;;;5.05;2.70;;;17.40;99.90;;;;;;5018612;28;20049;-74
2023/08/28 10:24:09;;;;;;;6.03;2.30;;;17.50;99.90;;;;;;5024918;28;20032;-74
2023/08/28 10:26:55;;;;;;;5.07;2.50;;;17.60;99.90;;;;;;5037973;28;20532;-74
2023/08/28 10:29:41;;;;;;;6.38;2.58;;;17.50;99.90;;;;;;5034443;28;20044;-74
2023/08/28 10:32:27;;;;;;;6.20;2.85;;;17.50;99.90;;;;;;5017940;28;20041;-75
2023/08/28 10:35:13;;;;;;;4.43;2.65;;;17.50;99.90;;;;;;5030494;28;20627;-74
2023/08/28 10:37:59;;;;;;;5.75;2.38;;;17.50;99.90;;;;;;5023809;28;20045;-74
2023/08/28 10:40:48;;;;;;;5.32;2.55;;;17.60;99.90;;;;;;5017306;28;20492;-74
2023/08/28 10:43:33;;;;;;;3.92;2.20;;;17.60;99.90;;;;;;5021569;28;20049;-74
2023/08/28 10:46:19;;;;;;;5.82;2.40;;;17.70;99.90;;;;;;5026538;28;20075;-74
2023/08/28 10:49:06;;;;;;;3.42;2.30;;;17.70;99.90;;;;;;5016956;28;20056;-75
2023/08/28 10:52:09;;;;;;;4.78;2.40;;;17.80;99.90;;;;;;5043441;28;20055;-75
2023/08/28 10:54:55;;;;;;;6.03;2.03;;;17.90;99.90;;;;;;5028411;28;20041;-75
2023/08/28 10:57:42;;;;;;;3.45;2.50;;;18.00;99.90;;;;;;5018340;28;20537;-73
2023/08/28 11:00:29;;;;;;;3.90;2.03;;;18.10;99.90;;;;;;5027061;28;20052;-74
2023/08/28 11:03:15;;;;;;;3.08;1.92;;;18.20;99.90;;;;;;5021617;28;20099;-74
2023/08/28 11:06:47;;;;;;;2.75;1.70;;;18.30;99.90;;;;;;5016786;28;20051;-74
2023/08/28 11:09:36;;;;;;;4.68;1.83;;;18.30;99.90;;;;;;5037696;28;20041;-74
2023/08/28 11:12:23;;;;;;;2.05;1.48;;;18.40;99.90;;;;;;5030806;28;20045;-75
2023/08/28 11:15:09;;;;;;;3.60;1.80;;;18.70;99.90;;;;;;5035975;28;20049;-73
2023/08/28 11:18:12;;;;;;;6.28;1.52;;;18.80;99.90;;;;;;5045155;28;20449;-75
2023/08/28 11:21:01;;;;;;;3.28;1.60;;;18.70;99.90;;;;;;5034430;28;20057;-74
2023/08/28 11:23:47;;;;;;;2.47;1.63;;;18.60;99.90;;;;;;5016654;28;20747;-74
2023/08/28 11:26:33;;;;;;;3.08;1.65;;;18.50;99.90;;;;;;5047170;28;20110;-74
2023/08/28 11:29:25;;;;;;;3.35;1.50;;;18.50;99.90;;;;;;5016365;28;20037;-74
2023/08/28 11:32:12;;;;;;;4.40;1.77;;;18.50;99.90;;;;;;5031628;28;20545;-74
2023/08/28 11:35:04;;;;;;;6.35;2.35;;;18.40;99.90;;;;;;5036107;28;20045;-74
2023/08/28 11:37:54;;;;;;;5.05;1.40;;;18.50;99.90;;;;;;5048776;28;20036;-74
2023/08/28 11:40:40;;;;;;;4.57;1.23;;;18.50;99.90;;;;;;5008162;28;20087;-76
2023/08/28 11:43:26;;;;;;;3.50;1.30;;;18.50;99.90;;;;;;5036655;28;20044;-74
2023/08/28 11:46:12;;;;;;;6.25;2.47;;;18.60;99.90;;;;;;5031948;28;20038;-75
2023/08/28 11:48:59;;;;;;;4.97;1.08;;;18.60;99.90;;;;;;5020462;28;20129;-74
2023/08/28 11:51:44;;;;;;;2.42;1.20;;;18.70;99.90;;;;;;5032094;28;20096;-74
2023/08/28 11:54:33;;;;;;;3.67;1.20;;;18.80;99.90;;;;;;5033677;28;20037;-74
2023/08/28 11:57:19;;;;;;;1.77;0.95;;;18.80;99.90;;;;;;5052495;28;20465;-74
2023/08/28 12:00:11;;;;;;;5.88;1.10;;;18.90;99.90;;;;;;5018996;28;20426;-76
2023/08/28 12:02:57;;;;;;;2.10;1.27;;;19.00;99.90;;;;;;5015933;28;20068;-76
2023/08/28 12:05:43;;;;;;;4.32;1.42;;;18.90;99.90;;;;;;5045355;28;20158;-74
2023/08/28 12:08:29;;;;;;;4.65;1.50;;;18.90;99.90;;;;;;5023766;28;20041;-75
2023/08/28 12:11:17;;;;;;;4.82;1.65;;;18.90;99.90;;;;;;5015320;28;20047;-74
2023/08/28 12:14:20;;;;;;;1.75;1.40;;;18.90;99.90;;;;;;5027205;28;20463;-74
2023/08/28 12:17:06;;;;;;;3.38;1.20;;;18.90;99.90;;;;;;5030358;28;20563;-74
2023/08/28 12:19:52;;;;;;;2.78;1.17;;;18.80;99.90;;;;;;5050449;28;20504;-74
2023/08/28 12:22:45;;;;;;;2.60;1.15;;;18.70;99.90;;;;;;5022544;28;20033;-74
2023/08/28 12:25:37;;;;;;;5.28;0.90;;;18.70;99.90;;;;;;5052067;28;20044;-74
2023/08/28 12:28:23;;;;;;;2.25;1.08;;;18.80;99.90;;;;;;5039699;28;20033;-74
2023/08/28 12:31:10;;;;;;;2.80;1.20;;;18.80;99.90;;;;;;5019971;28;20045;-74
2023/08/28 12:33:56;;;;;;;4.18;1.38;;;18.90;99.90;;;;;;5063679;28;20416;-72
2023/08/28 12:37:02;;;;;;;3.35;1.15;;;19.10;99.90;;;;;;5033150;28;20536;-75
2023/08/28 12:39:51;;;;;;;6.32;1.70;;;19.30;99.90;;;;;;5026403;28;20049;-76
2023/08/28 12:42:38;;;;;;;3.00;1.70;;;19.30;99.70;;;;;;5010933;28;20038;-74
2023/08/28 12:45:24;;;;;;;7.38;1.50;;;19.40;99.50;;;;;;5044218;28;20041;-75
2023/08/28 12:48:10;;;;;;;2.60;1.30;;;19.40;99.00;;;;;;5040981;28;20441;-75
2023/08/28 12:50:56;;;;;;;4.28;1.55;;;19.50;99.40;;;;;;5049930;28;20048;-74
2023/08/28 12:53:43;;;;;;;3.17;1.17;;;19.60;99.00;;;;;;5052458;28;20048;-73
2023/08/28 12:56:29;;;;;;;3.28;1.20;;;19.80;99.60;;;;;;5038536;28;20033;-75
2023/08/28 12:59:16;;;;;;;3.22;1.20;;;19.80;98.90;;;;;;5043014;28;20049;-74
2023/08/28 13:02:02;;;;;;;2.05;0.80;;;19.90;99.30;;;;;;5037711;28;20049;-74
2023/08/28 13:04:48;;;;;;;4.07;1.20;;;20.10;97.80;;;;;;5034521;28;20065;-74
2023/08/28 13:07:34;;;;;;;3.55;1.10;;;20.10;97.80;;;;;;5021780;28;20456;-75
2023/08/28 13:10:20;;;;;;;1.20;0.90;;;20.10;98.30;;;;;;5032882;28;20132;-75
2023/08/28 13:13:06;;;;;;;2.83;1.10;;;20.30;98.90;;;;;;5027306;28;20135;-76
2023/08/28 13:15:53;;;;;;;3.47;0.93;;;20.10;97.90;;;;;;5040266;28;20072;-72
2023/08/28 13:18:39;;;;;;;1.85;0.80;;;20.00;98.10;;;;;;5037216;28;20045;-73
2023/08/28 13:21:26;;;;;;;2.08;1.02;;;20.10;97.60;;;;;;5032915;28;20037;-73
2023/08/28 13:24:12;;;;;;;1.80;1.00;;;20.10;97.60;;;;;;5036894;28;20049;-73
2023/08/28 13:26:58;;;;;;;4.88;1.63;;;20.10;97.70;;;;;;5059436;28;20048;-72
2023/08/28 13:29:44;;;;;;;2.22;0.90;;;20.00;98.50;;;;;;5019042;28;20102;-73
2023/08/28 13:32:30;;;;;;;3.40;1.02;;;20.10;98.10;;;;;;5031882;28;20046;-71
2023/08/28 13:35:16;;;;;;;4.50;1.20;;;20.10;98.40;;;;;;5023265;28;20041;-73
2023/08/28 13:38:04;;;;;;;3.17;1.20;;;20.20;98.70;;;;;;5032411;28;20050;-72
2023/08/28 13:40:50;;;;;;;3.42;1.23;;;20.30;97.80;;;;;;5034612;28;20422;-74
2023/08/28 13:43:36;;;;;;;2.42;1.00;;;20.50;97.30;;;;;;5032178;28;20048;-74
2023/08/28 13:46:22;;;;;;;2.83;1.20;;;20.80;96.70;;;;;;5043366;28;20132;-74
2023/08/28 13:49:08;;;;;;;2.83;1.10;;;20.90;96.40;;;;;;5029949;28;20140;-74
2023/08/28 13:51:54;;;;;;;4.82;0.95;;;21.20;97.10;;;;;;5052193;28;20129;-75
2023/08/28 13:54:40;;;;;;;2.85;1.05;;;21.60;96.90;;;;;;5033322;28;20107;-74
2023/08/28 13:57:26;;;;;;;2.30;0.80;;;21.90;95.60;;;;;;5043836;28;20043;-75
2023/08/28 14:00:12;;;;;;;4.95;1.20;;;21.90;95.10;;;;;;5031284;28;20684;-75
2023/08/28 14:02:58;;;;;;;3.08;1.20;;;21.60;95.20;;;;;;5024323;28;20774;-74
2023/08/28 14:05:44;;;;;;;3.75;1.10;;;21.60;95.80;;;;;;5031247;28;20478;-74
2023/08/28 14:08:31;;;;;;;3.03;1.17;;;21.90;95.20;;;;;;5019109;28;20052;-76
2023/08/28 14:11:17;;;;;;;2.70;1.25;;;21.70;95.40;;;;;;5017678;28;20051;-74
2023/08/28 14:14:03;;;;;;;1.08;0.80;;;22.30;95.70;;;;;;5031854;28;20076;-76
2023/08/28 14:16:49;;;;;;;2.42;1.00;;;22.60;94.40;;;;;;5031933;28;20079;-74
2023/08/28 14:19:35;;;;;;;4.60;1.25;;;22.60;95.00;;;;;;5031462;28;20045;-74
2023/08/28 14:22:21;;;;;;;3.55;0.98;;;22.50;93.20;;;;;;5032325;28;20127;-74
2023/08/28 14:25:07;;;;;;;2.45;0.80;;;22.10;93.30;;;;;;5037005;28;20119;-75
2023/08/28 14:27:54;;;;;;;3.67;0.95;;;22.30;93.40;;;;;;5033884;28;20045;-75